createdAt,value
2023-02-19T00:01:24.216Z,77.94
2023-02-19T00:03:53.158Z,77.91
2023-02-19T00:06:21.215Z,78.38
2023-02-19T00:08:47.992Z,78.62
2023-02-19T00:11:20.120Z,79.46
2023-02-19T00:13:48.362Z,79.63
2023-02-19T00:16:17.529Z,79.47
2023-02-19T00:18:43.951Z,79.61
2023-02-19T00:21:10.721Z,80.81
2023-02-19T00:23:37.313Z,80.31
2023-02-19T00:26:21.947Z,80.05
2023-02-19T00:28:49.511Z,80.14
2023-02-19T00:31:31.485Z,79.82
2023-02-19T00:34:03.930Z,79.85
2023-02-19T00:36:31.548Z,79.11
2023-02-19T00:38:58.162Z,79.39
2023-02-19T00:41:25.099Z,79.44
2023-02-19T00:43:58.885Z,79.25
2023-02-19T00:46:37.142Z,79.11
2023-02-19T00:49:05.455Z,80.08
2023-02-19T00:51:34.824Z,81.13
2023-02-19T00:54:01.557Z,80.33
2023-02-19T00:56:28.061Z,81.38
2023-02-19T00:58:54.933Z,82.34
2023-02-19T01:01:21.629Z,81.12
2023-02-19T01:03:48.755Z,81.23
2023-02-19T01:06:17.435Z,82.45
2023-02-19T01:08:44.718Z,81.75
2023-02-19T01:11:12.152Z,82.00
2023-02-19T01:13:39.522Z,81.98
2023-02-19T01:16:21.554Z,81.45
2023-02-19T01:18:48.773Z,82.57
2023-02-19T01:21:17.975Z,82.23
2023-02-19T01:23:44.316Z,82.42
2023-02-19T01:26:16.920Z,83.03
2023-02-19T01:28:43.917Z,82.91
2023-02-19T01:31:14.580Z,82.11
2023-02-19T01:33:44.829Z,81.96
2023-02-19T01:36:11.241Z,82.04
2023-02-19T01:38:37.515Z,81.59
2023-02-19T01:41:06.809Z,81.63
2023-02-19T01:43:35.408Z,81.18
2023-02-19T01:46:02.241Z,82.44
2023-02-19T01:48:36.733Z,81.68
2023-02-19T01:51:09.138Z,82.21
2023-02-19T01:53:44.849Z,82.65
2023-02-19T01:56:12.979Z,82.19
2023-02-19T01:58:40.246Z,82.80
2023-02-19T02:01:08.524Z,82.15
2023-02-19T02:03:40.295Z,82.08
2023-02-19T02:06:18.793Z,82.64
2023-02-19T02:08:45.316Z,82.74
2023-02-19T02:11:12.009Z,81.98
2023-02-19T02:13:40.128Z,81.77
2023-02-19T02:16:17.876Z,81.74
2023-02-19T02:18:56.518Z,82.20
2023-02-19T02:21:41.246Z,81.15
2023-02-19T02:24:13.264Z,82.29
2023-02-19T02:26:58.343Z,81.64
2023-02-19T02:29:38.136Z,81.47
2023-02-19T02:32:13.119Z,81.17
2023-02-19T02:34:51.344Z,80.95
2023-02-19T02:37:17.765Z,81.70
2023-02-19T02:39:46.771Z,80.68
2023-02-19T02:42:13.715Z,80.97
2023-02-19T02:44:41.044Z,80.51
2023-02-19T02:47:09.954Z,80.06
2023-02-19T02:49:36.315Z,81.55
2023-02-19T02:52:02.745Z,82.21
2023-02-19T02:54:33.648Z,81.95
2023-02-19T02:57:01.896Z,81.21
2023-02-19T02:59:33.880Z,81.92
2023-02-19T03:02:11.164Z,81.49
2023-02-19T03:04:45.112Z,81.70
2023-02-19T03:07:12.460Z,80.83
2023-02-19T03:09:42.664Z,81.60
2023-02-19T03:12:14.771Z,81.53
2023-02-19T03:14:46.400Z,80.66
2023-02-19T03:17:21.879Z,80.51
2023-02-19T03:19:55.397Z,80.72
2023-02-19T03:22:27.447Z,80.07
2023-02-19T03:25:25.928Z,80.23
2023-02-19T03:27:54.127Z,80.20
2023-02-19T03:30:25.305Z,79.46
2023-02-19T03:33:20.640Z,79.09
2023-02-19T03:35:53.735Z,80.05
2023-02-19T03:38:28.854Z,80.10
2023-02-19T03:41:15.040Z,79.55
2023-02-19T03:44:02.941Z,78.76
2023-02-19T03:46:29.247Z,79.06
2023-02-19T03:49:24.118Z,79.39
2023-02-19T03:51:55.824Z,78.71
2023-02-19T03:54:42.305Z,79.05
2023-02-19T03:57:18.993Z,79.16
2023-02-19T04:00:03.498Z,79.37
2023-02-19T04:02:37.226Z,78.73
2023-02-19T04:05:14.092Z,77.73
2023-02-19T04:07:45.774Z,78.19
2023-02-19T04:10:14.089Z,78.73
2023-02-19T04:12:44.725Z,79.38
2023-02-19T04:15:16.034Z,79.18
2023-02-19T04:17:48.257Z,78.46
2023-02-19T04:20:17.093Z,79.27
2023-02-19T04:22:43.857Z,79.76
2023-02-19T04:25:10.324Z,79.50
2023-02-19T04:27:40.388Z,79.48
2023-02-19T04:30:08.718Z,78.85
2023-02-19T04:32:35.027Z,79.32
2023-02-19T04:35:01.353Z,79.01
2023-02-19T04:37:27.673Z,79.38
2023-02-19T04:39:53.964Z,79.37
2023-02-19T04:42:20.390Z,79.61
2023-02-19T04:44:46.730Z,79.04
2023-02-19T04:47:13.123Z,79.12
2023-02-19T04:49:39.432Z,79.51
2023-02-19T04:52:05.730Z,79.33
2023-02-19T04:54:32.031Z,79.30
2023-02-19T04:56:58.363Z,79.37
2023-02-19T04:59:24.680Z,79.79
2023-02-19T05:01:51.048Z,78.96
2023-02-19T05:04:17.427Z,78.91
2023-02-19T05:06:43.755Z,79.42
2023-02-19T05:09:10.109Z,78.33
2023-02-19T05:11:36.479Z,78.05
2023-02-19T05:14:02.848Z,78.02
2023-02-19T05:16:29.178Z,78.30
2023-02-19T05:18:55.490Z,78.21
2023-02-19T05:21:21.854Z,78.63
2023-02-19T05:23:48.159Z,78.15
2023-02-19T05:26:17.506Z,78.58
2023-02-19T05:28:48.730Z,78.55
2023-02-19T05:31:15.673Z,78.26
2023-02-19T05:33:42.349Z,78.11
2023-02-19T05:36:11.452Z,77.72
2023-02-19T05:38:38.553Z,77.37
2023-02-19T05:41:13.648Z,77.57
2023-02-19T05:43:41.692Z,77.21
2023-02-19T05:46:09.482Z,77.33
2023-02-19T05:48:35.970Z,76.25
2023-02-19T05:51:04.143Z,76.59
2023-02-19T05:53:30.822Z,76.34
2023-02-19T05:55:57.240Z,76.61
2023-02-19T05:58:23.788Z,77.50
2023-02-19T06:00:50.237Z,77.72
2023-02-19T06:03:16.647Z,77.19
2023-02-19T06:05:42.941Z,77.06
2023-02-19T06:08:12.342Z,77.21
2023-02-19T06:10:39.021Z,78.32
2023-02-19T06:13:05.588Z,77.70
2023-02-19T06:15:31.873Z,78.62
2023-02-19T06:17:58.229Z,78.18
2023-02-19T06:20:26.274Z,78.39
2023-02-19T06:22:52.676Z,78.54
2023-02-19T06:25:20.140Z,78.06
2023-02-19T06:27:46.450Z,78.25
2023-02-19T06:30:13.037Z,78.15
2023-02-19T06:32:39.399Z,77.51
2023-02-19T06:35:05.944Z,77.88
2023-02-19T06:37:32.341Z,77.49
2023-02-19T06:39:58.632Z,75.89
2023-02-19T06:42:24.933Z,76.32
2023-02-19T06:44:51.267Z,76.53
2023-02-19T06:47:17.599Z,76.12
2023-02-19T06:49:43.989Z,76.90
2023-02-19T06:52:10.536Z,76.92
2023-02-19T06:54:36.833Z,76.70
2023-02-19T06:57:03.218Z,76.48
2023-02-19T06:59:29.505Z,75.62
2023-02-19T07:01:55.809Z,76.33
2023-02-19T07:04:22.117Z,75.09
2023-02-19T07:06:48.473Z,76.02
2023-02-19T07:09:14.930Z,75.16
2023-02-19T07:11:41.237Z,75.92
2023-02-19T07:14:08.768Z,75.42
2023-02-19T07:16:35.580Z,75.18
2023-02-19T07:19:02.657Z,75.74
2023-02-19T07:21:29.852Z,75.71
2023-02-19T07:23:57.000Z,75.36
2023-02-19T07:26:24.400Z,75.80
2023-02-19T07:28:51.289Z,75.22
2023-02-19T07:31:19.297Z,75.19
2023-02-19T07:33:46.539Z,75.33
2023-02-19T07:36:14.082Z,75.75
2023-02-19T07:38:40.328Z,75.83
2023-02-19T07:41:07.018Z,75.81
2023-02-19T07:43:35.964Z,75.28
2023-02-19T07:46:06.849Z,75.17
2023-02-19T07:48:35.532Z,74.33
2023-02-19T07:51:04.214Z,75.14
2023-02-19T07:53:31.325Z,75.39
2023-02-19T07:56:02.605Z,74.85
2023-02-19T07:58:29.662Z,75.28
2023-02-19T08:00:56.088Z,74.03
2023-02-19T08:03:22.491Z,75.15
2023-02-19T08:05:49.338Z,74.38
2023-02-19T08:08:16.687Z,74.33
2023-02-19T08:10:43.122Z,74.27
2023-02-19T08:13:13.211Z,72.84
2023-02-19T08:15:39.565Z,74.57
2023-02-19T08:18:05.864Z,73.37
2023-02-19T08:20:32.186Z,73.30
2023-02-19T08:22:58.472Z,72.46
2023-02-19T08:25:24.756Z,72.65
2023-02-19T08:27:51.148Z,72.52
2023-02-19T08:30:17.805Z,72.63
2023-02-19T08:32:44.126Z,72.04
2023-02-19T08:35:10.421Z,72.13
2023-02-19T08:37:36.743Z,72.58
2023-02-19T08:40:03.379Z,71.79
2023-02-19T08:42:29.773Z,71.67
2023-02-19T08:44:56.079Z,71.55
2023-02-19T08:47:22.412Z,71.13
2023-02-19T08:49:48.744Z,71.53
2023-02-19T08:52:15.024Z,71.01
2023-02-19T08:54:41.323Z,72.02
2023-02-19T08:57:07.822Z,71.96
2023-02-19T08:59:34.188Z,70.91
2023-02-19T09:02:00.474Z,70.33
2023-02-19T09:04:27.069Z,70.40
2023-02-19T09:06:53.506Z,70.69
2023-02-19T09:09:19.913Z,70.60
2023-02-19T09:11:49.180Z,69.61
2023-02-19T09:14:15.630Z,69.47
2023-02-19T09:16:41.923Z,69.55
2023-02-19T09:19:08.236Z,69.59
2023-02-19T09:21:34.531Z,68.94
2023-02-19T09:24:00.833Z,68.66
2023-02-19T09:26:27.133Z,69.65
2023-02-19T09:28:53.416Z,69.81
2023-02-19T09:31:19.869Z,69.27
2023-02-19T09:33:48.235Z,69.21
2023-02-19T09:36:16.334Z,70.13
2023-02-19T09:38:43.088Z,69.98
2023-02-19T09:41:22.346Z,69.46
2023-02-19T09:43:48.816Z,69.69
2023-02-19T09:46:31.790Z,69.43
2023-02-19T09:49:14.303Z,69.15
2023-02-19T09:51:45.398Z,68.86
2023-02-19T09:54:20.859Z,69.26
2023-02-19T09:56:47.450Z,68.70
2023-02-19T09:59:21.936Z,68.76
2023-02-19T10:01:51.994Z,68.95
2023-02-19T10:04:18.322Z,69.55
2023-02-19T10:06:44.745Z,69.39
2023-02-19T10:09:19.481Z,70.01
2023-02-19T10:11:48.423Z,69.95
2023-02-19T10:14:21.493Z,70.15
2023-02-19T10:16:49.972Z,69.61
2023-02-19T10:19:16.934Z,68.60
2023-02-19T10:21:43.986Z,68.51
2023-02-19T10:24:20.563Z,68.58
2023-02-19T10:26:47.528Z,68.31
2023-02-19T10:29:13.831Z,68.20
2023-02-19T10:31:40.297Z,68.21
2023-02-19T10:34:21.164Z,68.08
2023-02-19T10:36:50.386Z,69.26
2023-02-19T10:39:22.944Z,68.71
2023-02-19T10:41:51.141Z,68.45
2023-02-19T10:44:28.830Z,67.68
2023-02-19T10:46:58.375Z,67.84
2023-02-19T10:49:41.026Z,67.42
2023-02-19T10:52:18.000Z,66.10
2023-02-19T10:54:45.491Z,66.77
2023-02-19T10:57:31.980Z,65.96
2023-02-19T11:00:14.830Z,66.96
2023-02-19T11:02:43.022Z,65.71
2023-02-19T11:05:09.271Z,65.76
2023-02-19T11:07:37.277Z,65.38
2023-02-19T11:10:05.300Z,66.74
2023-02-19T11:12:33.797Z,66.22
2023-02-19T11:15:21.624Z,66.46
2023-02-19T11:18:14.521Z,67.35
2023-02-19T11:20:51.272Z,67.88
2023-02-19T11:23:20.640Z,67.72
2023-02-19T11:25:49.481Z,68.68
2023-02-19T11:28:32.984Z,70.29
2023-02-19T11:31:19.236Z,71.03
2023-02-19T11:33:58.683Z,72.68
2023-02-19T11:36:37.969Z,72.44
2023-02-19T11:39:16.562Z,73.14
2023-02-19T11:42:08.886Z,73.34
2023-02-19T11:44:52.374Z,74.32
2023-02-19T11:47:57.256Z,72.53
2023-02-19T11:50:41.698Z,73.22
2023-02-19T11:53:31.660Z,73.78
2023-02-19T11:56:16.398Z,72.61
2023-02-19T11:59:01.877Z,72.41
2023-02-19T12:02:05.965Z,72.62
2023-02-19T12:05:02.880Z,71.14
2023-02-19T12:08:07.679Z,71.44
2023-02-19T12:10:51.629Z,71.85
2023-02-19T12:13:30.559Z,71.81
2023-02-19T12:16:29.805Z,71.50
2023-02-19T12:19:11.686Z,70.62
2023-02-19T12:21:56.413Z,71.23
2023-02-19T12:25:01.088Z,70.52
2023-02-19T12:27:42.522Z,70.76
2023-02-19T12:30:22.828Z,69.25
2023-02-19T12:33:07.767Z,70.22
2023-02-19T12:35:42.476Z,70.47
2023-02-19T12:38:18.406Z,70.47
2023-02-19T12:41:01.462Z,68.80
2023-02-19T12:43:30.926Z,70.06
2023-02-19T12:46:04.662Z,69.45
2023-02-19T12:48:36.884Z,66.91
2023-02-19T12:51:10.837Z,66.87
2023-02-19T12:53:56.201Z,65.64
2023-02-19T12:56:42.447Z,64.02
2023-02-19T12:59:16.430Z,64.44
2023-02-19T13:01:53.000Z,64.78
2023-02-19T13:04:26.072Z,64.03
2023-02-19T13:07:10.772Z,62.58
2023-02-19T13:09:45.506Z,61.57
2023-02-19T13:12:17.839Z,61.98
2023-02-19T13:14:48.459Z,62.69
2023-02-19T13:17:35.599Z,63.10
2023-02-19T13:20:15.200Z,63.80
2023-02-19T13:22:46.293Z,63.73
2023-02-19T13:25:14.685Z,64.86
2023-02-19T13:28:02.134Z,65.10
2023-02-19T13:30:42.996Z,66.43
2023-02-19T13:33:30.501Z,71.51
2023-02-19T13:36:26.818Z,69.38
2023-02-19T13:38:54.560Z,71.38
2023-02-19T13:41:29.656Z,69.78
2023-02-19T13:44:00.642Z,69.39
2023-02-19T13:46:41.721Z,69.75
2023-02-19T13:49:29.586Z,68.41
2023-02-19T13:51:57.954Z,69.97
2023-02-19T13:54:25.692Z,69.40
2023-02-19T13:57:22.834Z,68.63
2023-02-19T13:59:57.730Z,67.26
2023-02-19T14:02:28.452Z,67.81
2023-02-19T14:04:56.128Z,67.12
2023-02-19T14:07:38.458Z,66.80
2023-02-19T14:10:11.848Z,67.78
2023-02-19T14:12:38.154Z,67.67
2023-02-19T14:15:42.066Z,68.18
2023-02-19T14:18:28.568Z,69.55
2023-02-19T14:21:07.345Z,68.79
2023-02-19T14:23:33.825Z,69.97
2023-02-19T14:26:00.973Z,69.14
2023-02-19T14:28:40.409Z,70.07
2023-02-19T14:31:26.185Z,70.07
2023-02-19T14:33:55.809Z,70.33
2023-02-19T14:36:53.564Z,70.54
2023-02-19T14:39:24.467Z,70.97
2023-02-19T14:41:54.616Z,70.34
2023-02-19T14:44:28.752Z,70.57
2023-02-19T14:47:00.445Z,71.01
2023-02-19T14:49:38.931Z,71.55
2023-02-19T14:52:13.952Z,71.85
2023-02-19T14:55:07.836Z,72.40
2023-02-19T14:57:39.749Z,71.52
2023-02-19T15:00:25.031Z,71.06
2023-02-19T15:02:52.862Z,71.04
2023-02-19T15:05:25.020Z,70.83
2023-02-19T15:07:54.925Z,71.51
2023-02-19T15:10:21.985Z,70.46
2023-02-19T15:13:09.459Z,70.30
2023-02-19T15:15:39.311Z,71.36
2023-02-19T15:18:06.485Z,70.53
2023-02-19T15:20:35.630Z,71.11
2023-02-19T15:23:06.147Z,70.84
2023-02-19T15:25:42.934Z,70.56
2023-02-19T15:28:20.845Z,70.88
2023-02-19T15:30:47.309Z,70.80
2023-02-19T15:33:18.627Z,70.33
2023-02-19T15:35:51.241Z,71.38
2023-02-19T15:38:18.255Z,71.20
2023-02-19T15:40:46.474Z,70.84
2023-02-19T15:43:32.426Z,71.56
2023-02-19T15:46:14.221Z,71.96
2023-02-19T15:48:51.051Z,72.09
2023-02-19T15:51:25.332Z,71.85
2023-02-19T15:53:58.396Z,73.32
2023-02-19T15:56:30.014Z,73.44
2023-02-19T15:59:28.900Z,73.97
2023-02-19T16:01:55.583Z,73.77
2023-02-19T16:04:22.173Z,74.29
2023-02-19T16:07:00.755Z,73.78
2023-02-19T16:09:37.807Z,73.76
2023-02-19T16:12:20.839Z,73.80
2023-02-19T16:14:47.431Z,74.92
2023-02-19T16:17:17.860Z,73.86
2023-02-19T16:19:53.488Z,73.96
2023-02-19T16:22:23.566Z,73.30
2023-02-19T16:24:55.967Z,73.51
2023-02-19T16:27:40.379Z,74.26
2023-02-19T16:30:10.495Z,73.09
2023-02-19T16:32:36.790Z,73.97
2023-02-19T16:37:38.599Z,74.15
2023-02-19T16:40:07.708Z,74.73
2023-02-19T16:43:13.966Z,74.39
2023-02-19T16:45:44.786Z,74.60
2023-02-19T16:48:12.460Z,74.85
2023-02-19T16:50:40.106Z,74.40
2023-02-19T16:53:06.450Z,75.52
2023-02-19T16:55:32.846Z,74.50
2023-02-19T16:57:59.177Z,74.86
2023-02-19T17:00:28.743Z,74.81
2023-02-19T17:02:59.347Z,75.70
2023-02-19T17:05:27.364Z,75.48
2023-02-19T17:07:53.751Z,75.12
2023-02-19T17:10:23.655Z,75.29
2023-02-19T17:12:54.050Z,75.61
2023-02-19T17:15:21.478Z,75.38
2023-02-19T17:17:47.848Z,75.41
2023-02-19T17:20:23.106Z,76.24
2023-02-19T17:22:50.083Z,75.54
2023-02-19T17:25:16.439Z,76.40
2023-02-19T17:27:42.761Z,76.33
2023-02-19T17:30:25.173Z,77.45
2023-02-19T17:32:51.685Z,77.00
2023-02-19T17:35:17.987Z,77.45
2023-02-19T17:37:44.555Z,77.30
2023-02-19T17:40:31.797Z,77.30
2023-02-19T17:42:58.909Z,77.95
2023-02-19T17:45:25.310Z,78.73
2023-02-19T17:47:51.683Z,78.24
2023-02-19T17:50:21.191Z,79.32
2023-02-19T17:52:47.581Z,79.08
2023-02-19T17:55:15.958Z,79.06
2023-02-19T17:57:42.298Z,79.75
2023-02-19T18:00:09.201Z,79.56
2023-02-19T18:02:35.553Z,79.84
2023-02-19T18:05:01.867Z,79.68
2023-02-19T18:07:28.200Z,79.12
2023-02-19T18:09:54.584Z,80.02
2023-02-19T18:12:21.028Z,79.30
2023-02-19T18:14:47.399Z,79.41
2023-02-19T18:17:14.960Z,79.71
2023-02-19T18:19:42.916Z,79.84
2023-02-19T18:22:09.209Z,80.31
2023-02-19T18:24:35.562Z,80.15
2023-02-19T18:27:01.910Z,79.76
2023-02-19T18:29:28.209Z,80.61
2023-02-19T18:31:54.571Z,79.70
2023-02-19T18:34:21.225Z,79.74
2023-02-19T18:36:48.914Z,79.71
2023-02-19T18:39:15.847Z,79.36
2023-02-19T18:41:47.199Z,80.05
2023-02-19T18:44:16.531Z,79.71
2023-02-19T18:46:42.843Z,80.02
2023-02-19T18:49:09.138Z,79.89
2023-02-19T18:51:35.496Z,79.30
2023-02-19T18:54:01.791Z,79.64
2023-02-19T18:56:28.123Z,79.42
2023-02-19T18:58:54.416Z,78.17
2023-02-19T19:01:21.067Z,78.71
2023-02-19T19:03:47.482Z,78.59
2023-02-19T19:06:13.906Z,77.74
2023-02-19T19:08:40.338Z,78.11
2023-02-19T19:11:06.666Z,78.50
2023-02-19T19:13:32.955Z,78.07
2023-02-19T19:15:59.258Z,77.91
2023-02-19T19:18:25.605Z,77.97
2023-02-19T19:20:51.915Z,77.82
2023-02-19T19:23:18.226Z,77.63
2023-02-19T19:25:44.579Z,78.82
2023-02-19T19:28:10.866Z,77.69
2023-02-19T19:30:37.306Z,78.13
2023-02-19T19:33:03.745Z,77.83
2023-02-19T19:35:30.030Z,77.41
2023-02-19T19:37:56.423Z,77.47
2023-02-19T19:40:22.718Z,77.15
2023-02-19T19:42:50.939Z,77.55
2023-02-19T19:45:17.367Z,77.33
2023-02-19T19:47:43.696Z,77.24
2023-02-19T19:50:10.269Z,77.58
2023-02-19T19:52:36.591Z,76.93
2023-02-19T19:55:02.926Z,77.70
2023-02-19T19:57:29.279Z,78.40
2023-02-19T19:59:55.574Z,79.21
2023-02-19T20:02:21.921Z,79.06
2023-02-19T20:04:48.247Z,78.61
2023-02-19T20:07:14.896Z,78.96
2023-02-19T20:09:41.579Z,78.87
2023-02-19T20:12:08.191Z,79.17
2023-02-19T20:14:34.557Z,79.18
2023-02-19T20:17:01.776Z,79.17
2023-02-19T20:19:28.072Z,79.18
2023-02-19T20:21:54.464Z,78.89
2023-02-19T20:24:25.837Z,79.02
2023-02-19T20:27:00.716Z,78.58
2023-02-19T20:29:28.306Z,79.29
2023-02-19T20:31:55.289Z,80.09
2023-02-19T20:34:22.828Z,80.25
2023-02-19T20:36:49.655Z,79.76
2023-02-19T20:39:17.548Z,80.10
2023-02-19T20:41:48.780Z,80.25
2023-02-19T20:44:15.832Z,80.46
2023-02-19T20:46:43.846Z,80.18
2023-02-19T20:49:10.412Z,80.33
2023-02-19T20:51:58.215Z,80.06
2023-02-19T20:54:26.774Z,79.90
2023-02-19T20:56:55.043Z,79.59
2023-02-19T20:59:23.748Z,80.66
2023-02-19T21:01:50.426Z,80.23
2023-02-19T21:04:17.127Z,79.65
2023-02-19T21:06:43.746Z,80.17
2023-02-19T21:09:10.256Z,79.75
2023-02-19T21:11:36.558Z,79.99
2023-02-19T21:14:03.096Z,79.99
2023-02-19T21:16:31.045Z,79.93
2023-02-19T21:18:58.768Z,79.73
2023-02-19T21:21:25.706Z,79.61
2023-02-19T21:23:53.593Z,79.93
2023-02-19T21:26:20.532Z,79.72
2023-02-19T21:28:46.835Z,79.90
2023-02-19T21:31:13.557Z,80.23
2023-02-19T21:33:40.028Z,80.08
2023-02-19T21:36:06.715Z,79.60
2023-02-19T21:38:33.073Z,80.24
2023-02-19T21:40:59.355Z,79.64
2023-02-19T21:43:25.721Z,80.05
2023-02-19T21:45:52.067Z,79.69
2023-02-19T21:48:18.425Z,79.18
2023-02-19T21:50:44.792Z,79.25
2023-02-19T21:53:12.567Z,79.78
2023-02-19T21:55:41.122Z,79.83
2023-02-19T21:58:09.220Z,79.65
2023-02-19T22:00:35.676Z,79.64
2023-02-19T22:03:02.162Z,79.46
2023-02-19T22:05:28.509Z,79.39
2023-02-19T22:07:54.876Z,79.63
2023-02-19T22:10:21.434Z,79.49
2023-02-19T22:12:47.774Z,79.69
2023-02-19T22:15:14.156Z,79.28
2023-02-19T22:17:40.536Z,79.65
2023-02-19T22:20:07.370Z,79.05
2023-02-19T22:22:33.708Z,79.45
2023-02-19T22:25:00.025Z,79.81
2023-02-19T22:27:28.645Z,79.66
2023-02-19T22:29:54.972Z,79.62
2023-02-19T22:32:21.372Z,79.72
2023-02-19T22:34:47.865Z,79.82
2023-02-19T22:37:14.230Z,80.09
2023-02-19T22:39:40.532Z,79.98
2023-02-19T22:42:06.838Z,79.16
2023-02-19T22:44:33.199Z,80.13
2023-02-19T22:46:59.531Z,79.44
2023-02-19T22:49:25.848Z,80.32
2023-02-19T22:51:58.145Z,80.12
2023-02-19T22:54:24.428Z,79.98
2023-02-19T22:56:51.012Z,80.20
2023-02-19T22:59:17.327Z,79.87
2023-02-19T23:01:43.625Z,80.14
2023-02-19T23:04:10.084Z,80.06
2023-02-19T23:06:36.769Z,79.62
2023-02-19T23:09:11.120Z,79.81
2023-02-19T23:11:39.137Z,79.74
2023-02-19T23:14:06.759Z,80.23
2023-02-19T23:16:33.608Z,80.36
2023-02-19T23:18:59.919Z,79.57
2023-02-19T23:21:26.209Z,79.36
2023-02-19T23:23:52.526Z,79.63
2023-02-19T23:26:19.161Z,79.21
2023-02-19T23:28:45.820Z,78.95
2023-02-19T23:31:13.141Z,79.39
2023-02-19T23:33:39.532Z,79.31
2023-02-19T23:36:06.261Z,78.77
2023-02-19T23:38:32.734Z,79.27
2023-02-19T23:40:59.492Z,78.92
2023-02-19T23:43:25.861Z,79.14
2023-02-19T23:45:52.268Z,79.53
2023-02-19T23:48:18.572Z,79.50
2023-02-19T23:50:44.984Z,79.74
2023-02-19T23:53:11.366Z,79.67
2023-02-19T23:55:37.643Z,79.18
2023-02-19T23:58:04.042Z,79.53
